Time;durP1;ratioP1;P1;durP2;ratioP2;P2;SDS_P1;SDS_P2;PMS_P1;PMS_P2;Temp;Humidity;BMP_temperature;BMP_pressure;BME280_temperature;BME280_humidity;BME280_pressure;Samples;Min_cycle;Max_cycle;Signal;HPM_P1;HPM_P2
2024/02/02 00:00:08;;;;;;;24.30;21.60;;;;;;;19.90;21.55;101004.02;109655;1259;67491;-88
2024/02/02 00:02:37;;;;;;;27.10;22.50;;;;;;;19.91;21.47;101009.75;109758;1260;66847;-88
2024/02/02 00:10:49;;;;;;;27.10;23.20;;;;;;;19.92;21.41;101008.15;109705;1259;66988;-88
2024/02/02 00:13:17;;;;;;;25.70;21.90;;;;;;;19.93;21.35;101006.92;109711;1259;67553;-88
2024/02/02 00:15:43;;;;;;;27.60;23.40;;;;;;;19.94;21.55;101005.66;109659;1260;74991;-87
2024/02/02 00:18:10;;;;;;;29.20;23.70;;;;;;;19.94;21.52;101001.79;109708;1260;67544;-88
2024/02/02 00:20:36;;;;;;;27.10;23.10;;;;;;;19.95;21.31;100995.30;109656;1259;66892;-88
2024/02/02 00:25:47;;;;;;;27.80;24.30;;;;;;;19.95;21.30;100989.66;109529;1262;67683;-89
2024/02/02 00:28:13;;;;;;;28.30;24.10;;;;;;;19.96;21.33;100995.48;109394;1264;66831;-89
2024/02/02 00:30:40;;;;;;;28.00;23.80;;;;;;;19.97;21.45;100998.86;109408;1261;67530;-89
2024/02/02 00:33:06;;;;;;;26.80;23.60;;;;;;;19.98;21.30;100995.60;109551;1262;67579;-89
2024/02/02 00:35:32;;;;;;;27.90;24.30;;;;;;;19.99;21.51;100991.56;109558;1261;67433;-87
2024/02/02 00:38:01;;;;;;;27.50;23.70;;;;;;;20.00;21.47;100998.17;109181;1262;67485;-90
2024/02/02 00:40:29;;;;;;;28.80;24.60;;;;;;;20.00;21.35;100998.38;109562;1262;75134;-89
2024/02/02 00:42:54;;;;;;;29.30;24.60;;;;;;;20.01;21.29;100997.31;109284;1263;83012;-89
2024/02/02 00:45:21;;;;;;;29.20;23.90;;;;;;;20.01;21.46;100999.10;109527;1261;67561;-89
2024/02/02 00:47:47;;;;;;;30.40;24.50;;;;;;;20.02;21.34;100993.39;109319;1263;67417;-89
2024/02/02 00:50:12;;;;;;;29.10;25.00;;;;;;;20.02;21.25;100991.61;109277;1261;66949;-90
2024/02/02 00:52:38;;;;;;;28.20;25.00;;;;;;;20.02;21.18;100994.48;109559;1261;67451;-89
2024/02/02 00:55:04;;;;;;;29.10;25.20;;;;;;;20.03;21.39;100990.75;109490;1261;67545;-89
2024/02/02 00:57:30;;;;;;;29.20;24.90;;;;;;;20.03;21.27;100991.77;109622;1260;67525;-89
2024/02/02 00:59:55;;;;;;;31.50;26.60;;;;;;;20.04;21.35;100987.48;109453;1260;67578;-89
2024/02/02 01:02:21;;;;;;;31.00;26.40;;;;;;;20.04;21.30;100980.19;109451;1260;66930;-89
2024/02/02 01:04:48;;;;;;;30.00;26.20;;;;;;;20.04;21.43;100981.31;109442;1261;67001;-90
2024/02/02 01:07:14;;;;;;;28.80;25.70;;;;;;;20.04;21.25;100976.00;109282;1261;67505;-89
2024/02/02 01:09:40;;;;;;;30.90;26.40;;;;;;;20.05;21.31;100976.93;109404;1260;66979;-90
2024/02/02 01:12:06;;;;;;;29.30;25.60;;;;;;;20.05;21.28;100971.68;109451;1265;67548;-87
2024/02/02 01:14:32;;;;;;;31.30;27.60;;;;;;;20.06;21.23;100973.73;109566;1260;67179;-87
2024/02/02 01:17:02;;;;;;;30.60;26.10;;;;;;;20.05;21.35;100973.26;109461;1260;73132;-88
2024/02/02 01:19:28;;;;;;;33.20;28.40;;;;;;;20.06;21.26;100970.92;109469;1260;66802;-87
2024/02/02 01:21:55;;;;;;;31.10;26.40;;;;;;;20.06;21.31;100970.83;109364;1260;67489;-87
2024/02/02 01:24:23;;;;;;;32.60;27.50;;;;;;;20.07;21.32;100971.09;109623;1260;66942;-87
2024/02/02 01:26:49;;;;;;;32.80;28.00;;;;;;;20.07;21.25;100967.45;109415;1261;83763;-89
2024/02/02 01:29:15;;;;;;;33.50;28.40;;;;;;;20.07;21.29;100964.09;109516;1260;66843;-87
2024/02/02 01:31:40;;;;;;;31.50;28.00;;;;;;;20.08;21.26;100962.77;109599;1260;67459;-87
2024/02/02 01:34:06;;;;;;;30.40;27.00;;;;;;;20.08;21.33;100963.17;109403;1261;67527;-87
2024/02/02 01:36:33;;;;;;;32.60;28.90;;;;;;;20.08;21.36;100959.86;109540;1261;66994;-89
2024/02/02 01:39:04;;;;;;;32.90;29.30;;;;;;;20.08;21.28;100962.12;109586;1261;67594;-87
2024/02/02 01:41:32;;;;;;;32.10;27.80;;;;;;;20.08;21.33;100958.48;109538;1260;71539;-88
2024/02/02 01:43:58;;;;;;;32.20;27.90;;;;;;;20.09;21.25;100959.25;109432;1260;67327;-88
2024/02/02 01:46:27;;;;;;;32.70;29.20;;;;;;;20.09;21.43;100960.39;109557;1260;67545;-88
2024/02/02 01:48:53;;;;;;;33.20;28.50;;;;;;;20.09;21.35;100962.38;109456;1260;74631;-87
2024/02/02 01:51:19;;;;;;;31.80;28.30;;;;;;;20.10;21.36;100957.92;109357;1260;67551;-87
2024/02/02 01:53:45;;;;;;;32.80;28.60;;;;;;;20.10;21.34;100957.42;107150;1261;2942559;-87
2024/02/02 01:56:10;;;;;;;34.90;28.80;;;;;;;20.10;21.24;100950.58;109616;1260;67316;-88
2024/02/02 01:58:37;;;;;;;34.60;29.30;;;;;;;20.10;21.29;100955.70;109352;1261;67717;-88
2024/02/02 02:01:04;;;;;;;32.60;28.40;;;;;;;20.11;21.30;100955.60;109651;1260;66811;-87
2024/02/02 02:03:30;;;;;;;32.40;28.30;;;;;;;20.11;21.34;100957.14;109392;1260;67516;-88
2024/02/02 02:05:56;;;;;;;33.60;29.00;;;;;;;20.11;21.49;100957.48;109381;1261;67638;-87
2024/02/02 02:08:22;;;;;;;32.60;29.00;;;;;;;20.11;21.34;100951.98;109591;1261;66940;-88
2024/02/02 02:10:50;;;;;;;33.10;29.00;;;;;;;20.12;21.32;100948.95;109505;1260;67589;-91
2024/02/02 02:13:16;;;;;;;34.00;29.30;;;;;;;20.12;21.33;100948.05;109605;1261;82668;-87
2024/02/02 02:15:42;;;;;;;33.60;28.50;;;;;;;20.12;21.41;100948.45;109386;1263;67490;-87
2024/02/02 02:18:07;;;;;;;32.50;28.30;;;;;;;20.13;21.30;100948.67;109620;1260;67451;-88
2024/02/02 02:20:34;;;;;;;32.30;28.70;;;;;;;20.13;21.41;100953.46;109462;1263;67518;-88
2024/02/02 02:23:00;;;;;;;33.20;28.90;;;;;;;20.13;21.43;100956.59;109557;1261;66926;-89
2024/02/02 02:25:26;;;;;;;32.60;28.50;;;;;;;20.13;21.45;100958.17;109329;1260;67715;-88
2024/02/02 02:27:52;;;;;;;34.40;29.90;;;;;;;20.13;21.26;100958.17;109400;1261;67659;-88
2024/02/02 02:30:18;;;;;;;32.20;28.50;;;;;;;20.13;21.46;100963.23;109685;1260;66884;-87
2024/02/02 02:32:44;;;;;;;34.00;29.30;;;;;;;20.15;21.52;100963.10;109635;1261;76131;-88
2024/02/02 02:35:09;;;;;;;31.90;28.50;;;;;;;20.15;21.50;100962.54;109420;1260;67552;-88
2024/02/02 02:40:23;;;;;;;31.50;28.10;;;;;;;20.15;21.43;100965.81;109628;1259;66824;-88
2024/02/02 02:42:50;;;;;;;32.70;28.90;;;;;;;20.15;21.52;100974.40;109620;1260;67576;-88
2024/02/02 02:45:16;;;;;;;32.60;28.60;;;;;;;20.15;21.57;100979.20;109638;1260;67377;-88
2024/02/02 02:47:42;;;;;;;34.00;29.60;;;;;;;20.16;21.46;100985.75;109545;1259;67110;-88
2024/02/02 02:50:09;;;;;;;32.40;28.80;;;;;;;20.16;21.55;100992.95;109595;1260;67568;-88
2024/02/02 02:55:15;;;;;;;34.00;29.60;;;;;;;20.17;21.59;100994.04;109604;1260;67508;-89
2024/02/02 02:57:41;;;;;;;31.70;27.70;;;;;;;20.16;21.49;100998.73;109516;1260;67517;-89
2024/02/02 03:00:09;;;;;;;32.10;28.30;;;;;;;20.17;21.67;100995.73;109711;1260;67590;-86
2024/02/02 03:02:34;;;;;;;34.40;28.80;;;;;;;20.17;21.66;101001.25;109488;1260;66901;-88
2024/02/02 03:05:00;;;;;;;32.20;28.70;;;;;;;20.18;21.53;100996.80;109609;1260;66894;-89
2024/02/02 03:10:12;;;;;;;31.50;28.20;;;;;;;20.17;21.65;100999.05;109626;1260;75033;-88
2024/02/02 03:12:40;;;;;;;32.90;28.30;;;;;;;20.18;21.59;101001.05;109632;1259;84116;-88
2024/02/02 03:15:06;;;;;;;32.60;29.10;;;;;;;20.17;21.37;101001.80;109694;1260;72556;-88
2024/02/02 03:17:32;;;;;;;31.70;28.30;;;;;;;20.18;21.68;101004.67;109472;1259;66861;-89
2024/02/02 03:19:58;;;;;;;32.40;28.20;;;;;;;20.17;21.62;101005.40;109685;1260;66954;-89
2024/02/02 03:25:07;;;;;;;33.30;28.50;;;;;;;20.18;21.61;101011.21;109668;1261;82794;-88
2024/02/02 03:27:33;;;;;;;31.30;27.50;;;;;;;20.17;21.55;101013.66;109666;1259;72313;-88
2024/02/02 03:30:00;;;;;;;32.00;27.70;;;;;;;20.17;21.64;101016.00;109613;1260;67463;-88
2024/02/02 03:32:26;;;;;;;33.40;27.90;;;;;;;20.17;21.63;101013.05;109597;1260;67432;-89
2024/02/02 03:34:52;;;;;;;31.00;27.60;;;;;;;20.17;21.60;101015.55;109686;1260;66913;-88
2024/02/02 03:40:08;;;;;;;32.20;28.70;;;;;;;20.17;21.58;101019.02;109647;1260;72284;-87
2024/02/02 03:42:34;;;;;;;32.20;27.40;;;;;;;20.16;21.75;101022.65;109406;1260;67527;-87
2024/02/02 03:45:00;;;;;;;31.50;27.20;;;;;;;20.16;21.63;101029.17;109666;1260;67706;-88
2024/02/02 03:47:25;;;;;;;33.70;28.80;;;;;;;20.16;21.63;101036.63;109681;1260;66950;-86
2024/02/02 03:49:51;;;;;;;35.40;27.40;;;;;;;20.15;21.62;101041.18;109650;1260;67597;-89
2024/02/02 03:54:58;;;;;;;35.10;29.50;;;;;;;20.13;21.61;101042.02;109582;1260;66821;-88
2024/02/02 03:57:23;;;;;;;36.20;29.00;;;;;;;20.12;21.64;101054.00;109556;1260;67201;-88
2024/02/02 04:08:10;;;;;;;34.90;27.00;;;;;;;20.07;21.71;101068.36;109788;1257;66898;-90
2024/02/02 04:18:59;;;;;;;37.60;29.00;;;;;;;20.10;22.52;101063.07;109579;1261;73567;-88
2024/02/02 04:21:33;;;;;;;35.50;28.60;;;;;;;20.09;22.71;101063.11;109819;1257;66855;-87
2024/02/02 04:23:59;;;;;;;33.50;28.70;;;;;;;20.08;22.84;101066.32;109749;1257;67584;-87
2024/02/02 04:26:25;;;;;;;42.40;30.90;;;;;;;20.07;22.97;101074.17;109887;1257;67328;-87
2024/02/02 04:28:50;;;;;;;36.40;30.10;;;;;;;20.06;22.99;101082.42;109809;1257;67642;-87
2024/02/02 04:33:56;;;;;;;51.70;38.20;;;;;;;20.00;22.95;101100.08;109432;1262;67657;-88
2024/02/02 04:36:21;;;;;;;47.90;41.00;;;;;;;19.95;23.01;101100.90;109391;1263;67618;-88
2024/02/02 04:38:47;;;;;;;74.10;39.90;;;;;;;19.91;22.88;101107.51;109556;1264;66920;-88
2024/02/02 04:41:12;;;;;;;51.40;38.00;;;;;;;19.85;23.09;101128.26;109584;1263;67703;-88
2024/02/02 04:43:38;;;;;;;48.70;39.00;;;;;;;19.75;23.23;101135.39;109574;1264;67582;-88
2024/02/02 04:48:44;;;;;;;45.60;40.50;;;;;;;19.01;23.05;101157.61;109621;1261;75401;-88
2024/02/02 04:51:10;;;;;;;47.80;39.80;;;;;;;18.67;22.96;101157.88;109650;1263;67299;-89
2024/02/02 04:53:35;;;;;;;49.60;40.10;;;;;;;18.38;23.07;101161.02;109387;1261;67606;-88
2024/02/02 04:58:51;;;;;;;59.10;38.70;;;;;;;17.36;23.27;101175.27;109616;1262;66882;-89
2024/02/02 05:01:19;;;;;;;55.70;36.70;;;;;;;17.11;23.83;101185.52;109556;1261;74073;-87
2024/02/02 05:03:44;;;;;;;55.00;36.70;;;;;;;17.23;24.04;101187.86;109491;1262;82796;-86
2024/02/02 05:06:10;;;;;;;50.60;34.80;;;;;;;17.42;24.03;101198.73;109514;1261;67836;-86
2024/02/02 05:11:28;;;;;;;41.50;33.20;;;;;;;17.80;23.97;101200.37;109713;1259;67000;-89
2024/02/02 05:19:26;;;;;;;57.40;34.40;;;;;;;18.38;23.75;101211.94;109556;1260;72523;-88
2024/02/02 05:27:28;;;;;;;50.40;33.00;;;;;;;18.87;23.41;101226.35;109663;1263;75223;-87
2024/02/02 05:29:54;;;;;;;50.30;32.60;;;;;;;18.99;23.30;101233.80;109522;1264;67584;-87
2024/02/02 05:32:19;;;;;;;62.10;33.30;;;;;;;19.13;23.30;101235.80;109662;1257;67199;-89
2024/02/02 07:14:52;;;;;;;33.90;18.00;;;;;;;20.79;21.83;101336.96;109563;1259;80113;-91
2024/02/02 07:59:49;;;;;;;33.50;14.40;;;;;;;21.01;23.32;101349.35;109680;1257;80702;-89
2024/02/02 08:02:32;;;;;;;33.00;15.20;;;;;;;21.02;23.36;101353.65;109602;1260;73340;-90
2024/02/02 08:04:59;;;;;;;37.70;14.10;;;;;;;21.00;23.47;101359.86;109398;1266;68081;-89
2024/02/02 08:13:23;;;;;;;31.90;14.20;;;;;;;20.99;23.61;101372.20;109633;1261;81501;-89
2024/02/02 08:21:33;;;;;;;25.40;14.20;;;;;;;21.01;23.57;101376.98;109494;1260;67376;-93
2024/02/02 08:24:05;;;;;;;24.60;13.10;;;;;;;21.02;23.37;101380.88;109509;1261;75159;-87
2024/02/02 08:29:34;;;;;;;;;;;;;;;;;;;;;
2024/02/02 08:43:23;;;;;;;27.20;12.50;;;;;;;21.13;23.36;101404.52;109614;1257;71248;-89
2024/02/02 10:26:46;;;;;;;42.40;17.50;;;;;;;21.52;23.78;101410.96;109543;1260;80862;-88
2024/02/02 10:51:21;;;;;;;34.60;17.50;;;;;;;22.13;24.04;101405.41;108442;1261;615600;-91
2024/02/02 11:36:45;;;;;;;29.90;18.30;;;;;;;21.30;23.72;101403.33;109618;1260;71229;-91
2024/02/02 14:18:34;;;;;;;16.70;10.30;;;;;;;21.24;23.37;101477.96;109368;1263;84046;-91
2024/02/02 19:31:52;;;;;;;16.20;12.80;;;;;;;19.46;25.04;101584.70;109667;1265;66017;31
